sensor_id;sensor_type;location;lat;lon;timestamp;pressure;altitude;pressure_sealevel;temperature;humidity
76166;BME280;65085;46.718;20.136;2023-01-29T00:02:12;101487.75;;;2.64;70.82
76166;BME280;65085;46.718;20.136;2023-01-29T00:05:14;101495.47;;;2.52;71.58
76166;BME280;65085;46.718;20.136;2023-01-29T00:08:29;101496.66;;;2.60;71.37
76166;BME280;65085;46.718;20.136;2023-01-29T00:11:34;101494.38;;;2.53;71.06
76166;BME280;65085;46.718;20.136;2023-01-29T00:14:37;101496.25;;;2.39;71.95
76166;BME280;65085;46.718;20.136;2023-01-29T00:17:39;101498.75;;;2.49;71.49
76166;BME280;65085;46.718;20.136;2023-01-29T00:20:43;101500.03;;;2.52;71.36
76166;BME280;65085;46.718;20.136;2023-01-29T00:23:47;101497.44;;;2.47;71.80
76166;BME280;65085;46.718;20.136;2023-01-29T00:26:51;101493.59;;;2.53;71.03
76166;BME280;65085;46.718;20.136;2023-01-29T00:29:54;101495.28;;;2.62;71.26
76166;BME280;65085;46.718;20.136;2023-01-29T00:33:14;101497.63;;;2.50;70.83
76166;BME280;65085;46.718;20.136;2023-01-29T00:36:19;101505.41;;;2.52;71.73
76166;BME280;65085;46.718;20.136;2023-01-29T00:39:21;101508.69;;;2.49;71.36
76166;BME280;65085;46.718;20.136;2023-01-29T00:42:43;101512.94;;;2.50;71.34
76166;BME280;65085;46.718;20.136;2023-01-29T00:46:04;101520.19;;;2.49;71.14
76166;BME280;65085;46.718;20.136;2023-01-29T00:49:08;101522.78;;;2.41;71.78
76166;BME280;65085;46.718;20.136;2023-01-29T00:52:11;101518.28;;;2.36;71.77
76166;BME280;65085;46.718;20.136;2023-01-29T00:55:25;101518.69;;;2.43;71.35
76166;BME280;65085;46.718;20.136;2023-01-29T00:58:29;101523.06;;;2.39;71.67
76166;BME280;65085;46.718;20.136;2023-01-29T01:01:35;101521.75;;;2.37;71.70
76166;BME280;65085;46.718;20.136;2023-01-29T01:04:57;101529.00;;;2.36;71.25
76166;BME280;65085;46.718;20.136;2023-01-29T01:08:00;101527.59;;;2.39;71.57
76166;BME280;65085;46.718;20.136;2023-01-29T01:11:05;101532.16;;;2.25;71.44
76166;BME280;65085;46.718;20.136;2023-01-29T01:14:09;101532.97;;;2.39;71.01
76166;BME280;65085;46.718;20.136;2023-01-29T01:17:11;101520.16;;;2.36;71.13
76166;BME280;65085;46.718;20.136;2023-01-29T01:20:14;101525.03;;;2.34;70.56
76166;BME280;65085;46.718;20.136;2023-01-29T01:23:18;101524.34;;;2.42;71.31
76166;BME280;65085;46.718;20.136;2023-01-29T01:26:20;101535.09;;;2.42;71.22
76166;BME280;65085;46.718;20.136;2023-01-29T01:29:25;101536.28;;;2.49;71.00
76166;BME280;65085;46.718;20.136;2023-01-29T01:32:27;101529.41;;;2.43;70.71
76166;BME280;65085;46.718;20.136;2023-01-29T01:35:30;101534.06;;;2.38;70.66
76166;BME280;65085;46.718;20.136;2023-01-29T01:38:32;101527.75;;;2.47;69.85
76166;BME280;65085;46.718;20.136;2023-01-29T01:41:35;101536.94;;;2.41;70.73
76166;BME280;65085;46.718;20.136;2023-01-29T01:44:52;101537.66;;;2.47;70.93
76166;BME280;65085;46.718;20.136;2023-01-29T01:47:59;101547.69;;;2.41;70.31
76166;BME280;65085;46.718;20.136;2023-01-29T01:51:04;101549.66;;;2.36;70.84
76166;BME280;65085;46.718;20.136;2023-01-29T01:54:09;101549.50;;;2.27;71.07
76166;BME280;65085;46.718;20.136;2023-01-29T01:57:16;101551.19;;;2.23;71.39
76166;BME280;65085;46.718;20.136;2023-01-29T02:00:24;101549.00;;;2.25;71.99
76166;BME280;65085;46.718;20.136;2023-01-29T02:03:29;101558.41;;;2.41;71.50
76166;BME280;65085;46.718;20.136;2023-01-29T02:06:53;101557.91;;;2.39;70.35
76166;BME280;65085;46.718;20.136;2023-01-29T02:10:17;101561.53;;;2.30;71.56
76166;BME280;65085;46.718;20.136;2023-01-29T02:13:22;101556.94;;;2.17;70.98
76166;BME280;65085;46.718;20.136;2023-01-29T02:16:26;101559.00;;;2.38;70.42
76166;BME280;65085;46.718;20.136;2023-01-29T02:19:40;101572.47;;;2.33;70.57
76166;BME280;65085;46.718;20.136;2023-01-29T02:23:13;101565.94;;;2.39;70.08
76166;BME280;65085;46.718;20.136;2023-01-29T02:26:38;101572.63;;;2.42;69.77
76166;BME280;65085;46.718;20.136;2023-01-29T02:29:51;101578.88;;;2.37;69.82
76166;BME280;65085;46.718;20.136;2023-01-29T02:33:00;101576.19;;;2.37;69.46
76166;BME280;65085;46.718;20.136;2023-01-29T02:36:18;101576.31;;;2.27;70.13
76166;BME280;65085;46.718;20.136;2023-01-29T02:39:30;101579.75;;;2.33;72.51
76166;BME280;65085;46.718;20.136;2023-01-29T02:42:39;101584.00;;;2.34;69.01
76166;BME280;65085;46.718;20.136;2023-01-29T02:45:50;101590.47;;;2.33;68.80
76166;BME280;65085;46.718;20.136;2023-01-29T02:48:58;101586.31;;;2.22;69.18
76166;BME280;65085;46.718;20.136;2023-01-29T02:52:07;101586.31;;;2.22;69.59
76166;BME280;65085;46.718;20.136;2023-01-29T02:55:12;101587.56;;;2.11;69.35
76166;BME280;65085;46.718;20.136;2023-01-29T02:58:24;101588.50;;;2.20;69.07
76166;BME280;65085;46.718;20.136;2023-01-29T03:01:35;101593.66;;;2.16;68.71
76166;BME280;65085;46.718;20.136;2023-01-29T03:04:45;101591.84;;;2.12;70.27
76166;BME280;65085;46.718;20.136;2023-01-29T03:07:53;101590.47;;;1.96;71.38
76166;BME280;65085;46.718;20.136;2023-01-29T03:11:09;101594.03;;;2.10;69.82
76166;BME280;65085;46.718;20.136;2023-01-29T03:14:20;101594.47;;;2.17;69.74
76166;BME280;65085;46.718;20.136;2023-01-29T03:17:32;101599.81;;;2.17;69.33
76166;BME280;65085;46.718;20.136;2023-01-29T03:20:42;101594.16;;;2.18;70.17
76166;BME280;65085;46.718;20.136;2023-01-29T03:23:51;101595.56;;;2.16;69.15
76166;BME280;65085;46.718;20.136;2023-01-29T03:27:17;101603.50;;;2.21;68.94
76166;BME280;65085;46.718;20.136;2023-01-29T03:30:44;101603.59;;;2.16;70.29
76166;BME280;65085;46.718;20.136;2023-01-29T03:34:23;101600.25;;;2.24;69.11
76166;BME280;65085;46.718;20.136;2023-01-29T03:37:40;101602.19;;;2.18;69.31
76166;BME280;65085;46.718;20.136;2023-01-29T03:40:50;101609.94;;;2.20;69.15
76166;BME280;65085;46.718;20.136;2023-01-29T03:44:04;101597.72;;;2.14;69.80
76166;BME280;65085;46.718;20.136;2023-01-29T03:47:15;101611.25;;;2.04;69.67
76166;BME280;65085;46.718;20.136;2023-01-29T03:50:30;101614.38;;;2.11;69.48
76166;BME280;65085;46.718;20.136;2023-01-29T03:53:41;101605.25;;;2.12;69.53
76166;BME280;65085;46.718;20.136;2023-01-29T03:57:07;101599.00;;;2.16;69.53
76166;BME280;65085;46.718;20.136;2023-01-29T04:00:22;101601.31;;;2.23;69.58
76166;BME280;65085;46.718;20.136;2023-01-29T04:03:37;101596.63;;;2.15;69.22
76166;BME280;65085;46.718;20.136;2023-01-29T04:06:45;101601.19;;;2.14;69.54
76166;BME280;65085;46.718;20.136;2023-01-29T04:09:50;101590.84;;;2.08;70.62
76166;BME280;65085;46.718;20.136;2023-01-29T04:12:58;101600.47;;;2.09;71.12
76166;BME280;65085;46.718;20.136;2023-01-29T04:16:06;101606.69;;;2.23;68.66
76166;BME280;65085;46.718;20.136;2023-01-29T04:19:38;101604.75;;;2.10;69.96
76166;BME280;65085;46.718;20.136;2023-01-29T04:22:47;101605.53;;;2.10;69.12
76166;BME280;65085;46.718;20.136;2023-01-29T04:25:58;101613.66;;;2.24;68.86
76166;BME280;65085;46.718;20.136;2023-01-29T04:29:17;101619.25;;;2.09;69.46
76166;BME280;65085;46.718;20.136;2023-01-29T04:32:30;101622.47;;;2.06;68.85
76166;BME280;65085;46.718;20.136;2023-01-29T04:35:43;101623.44;;;1.96;69.43
76166;BME280;65085;46.718;20.136;2023-01-29T04:38:58;101620.88;;;2.05;69.51
76166;BME280;65085;46.718;20.136;2023-01-29T04:42:10;101623.44;;;1.96;69.53
76166;BME280;65085;46.718;20.136;2023-01-29T04:45:19;101621.63;;;1.92;69.64
76166;BME280;65085;46.718;20.136;2023-01-29T04:48:29;101634.88;;;2.02;69.86
76166;BME280;65085;46.718;20.136;2023-01-29T04:51:42;101624.84;;;1.89;68.94
76166;BME280;65085;46.718;20.136;2023-01-29T04:54:58;101635.66;;;1.84;69.23
76166;BME280;65085;46.718;20.136;2023-01-29T04:58:06;101635.06;;;1.87;69.63
76166;BME280;65085;46.718;20.136;2023-01-29T05:01:15;101639.16;;;1.79;69.58
76166;BME280;65085;46.718;20.136;2023-01-29T05:04:19;101635.72;;;1.79;69.79
76166;BME280;65085;46.718;20.136;2023-01-29T05:07:23;101635.47;;;1.75;69.47
76166;BME280;65085;46.718;20.136;2023-01-29T05:10:29;101648.38;;;1.73;69.55
76166;BME280;65085;46.718;20.136;2023-01-29T05:13:33;101647.91;;;1.66;70.40
76166;BME280;65085;46.718;20.136;2023-01-29T05:16:42;101657.50;;;1.72;70.13
76166;BME280;65085;46.718;20.136;2023-01-29T05:19:47;101654.00;;;1.72;70.68
76166;BME280;65085;46.718;20.136;2023-01-29T05:22:52;101661.66;;;1.60;71.20
76166;BME280;65085;46.718;20.136;2023-01-29T05:25:56;101651.97;;;1.64;70.72
76166;BME280;65085;46.718;20.136;2023-01-29T05:28:59;101651.59;;;1.70;71.03
76166;BME280;65085;46.718;20.136;2023-01-29T05:32:02;101660.34;;;1.57;71.85
76166;BME280;65085;46.718;20.136;2023-01-29T05:35:06;101664.00;;;1.66;70.53
76166;BME280;65085;46.718;20.136;2023-01-29T05:38:09;101662.78;;;1.54;71.78
76166;BME280;65085;46.718;20.136;2023-01-29T05:41:16;101660.66;;;1.51;71.97
76166;BME280;65085;46.718;20.136;2023-01-29T05:44:19;101663.03;;;1.57;71.69
76166;BME280;65085;46.718;20.136;2023-01-29T05:47:22;101658.13;;;1.64;71.28
76166;BME280;65085;46.718;20.136;2023-01-29T05:50:25;101657.38;;;1.59;71.24
76166;BME280;65085;46.718;20.136;2023-01-29T05:53:29;101659.88;;;1.50;72.89
76166;BME280;65085;46.718;20.136;2023-01-29T05:56:36;101646.16;;;1.57;71.76
76166;BME280;65085;46.718;20.136;2023-01-29T05:59:38;101651.09;;;1.68;71.96
76166;BME280;65085;46.718;20.136;2023-01-29T06:02:41;101645.34;;;1.80;70.68
76166;BME280;65085;46.718;20.136;2023-01-29T06:05:44;101654.41;;;1.84;71.36
76166;BME280;65085;46.718;20.136;2023-01-29T06:08:47;101642.06;;;1.83;70.72
76166;BME280;65085;46.718;20.136;2023-01-29T06:11:51;101657.09;;;1.84;72.38
76166;BME280;65085;46.718;20.136;2023-01-29T06:14:54;101649.88;;;1.79;72.83
76166;BME280;65085;46.718;20.136;2023-01-29T06:17:56;101647.00;;;1.76;72.38
76166;BME280;65085;46.718;20.136;2023-01-29T06:21:00;101650.19;;;1.78;73.09
76166;BME280;65085;46.718;20.136;2023-01-29T06:24:04;101645.38;;;1.75;71.87
76166;BME280;65085;46.718;20.136;2023-01-29T06:27:08;101651.38;;;1.67;71.90
76166;BME280;65085;46.718;20.136;2023-01-29T06:30:12;101659.88;;;1.74;71.50
76166;BME280;65085;46.718;20.136;2023-01-29T06:33:15;101658.81;;;1.93;71.10
76166;BME280;65085;46.718;20.136;2023-01-29T06:36:17;101661.91;;;1.82;71.17
76166;BME280;65085;46.718;20.136;2023-01-29T06:39:20;101667.38;;;1.95;70.69
76166;BME280;65085;46.718;20.136;2023-01-29T06:42:24;101671.31;;;2.03;70.81
76166;BME280;65085;46.718;20.136;2023-01-29T06:45:29;101659.44;;;2.09;70.67
76166;BME280;65085;46.718;20.136;2023-01-29T06:48:32;101656.75;;;2.09;71.52
76166;BME280;65085;46.718;20.136;2023-01-29T06:51:35;101662.53;;;1.97;71.76
76166;BME280;65085;46.718;20.136;2023-01-29T06:54:37;101671.53;;;2.06;71.10
76166;BME280;65085;46.718;20.136;2023-01-29T06:57:42;101678.28;;;2.22;70.07
76166;BME280;65085;46.718;20.136;2023-01-29T07:00:45;101668.06;;;2.24;70.82
76166;BME280;65085;46.718;20.136;2023-01-29T07:03:48;101683.72;;;2.36;69.66
76166;BME280;65085;46.718;20.136;2023-01-29T07:06:52;101691.03;;;2.30;69.82
76166;BME280;65085;46.718;20.136;2023-01-29T07:09:55;101689.28;;;2.39;69.77
76166;BME280;65085;46.718;20.136;2023-01-29T07:12:59;101689.50;;;2.43;69.32
76166;BME280;65085;46.718;20.136;2023-01-29T07:16:03;101693.50;;;2.45;70.62
76166;BME280;65085;46.718;20.136;2023-01-29T07:19:06;101691.97;;;2.58;69.47
76166;BME280;65085;46.718;20.136;2023-01-29T07:22:08;101692.03;;;2.71;69.68
76166;BME280;65085;46.718;20.136;2023-01-29T07:25:11;101700.34;;;2.70;69.52
76166;BME280;65085;46.718;20.136;2023-01-29T07:28:15;101714.91;;;2.82;68.82
76166;BME280;65085;46.718;20.136;2023-01-29T07:31:18;101707.69;;;2.83;68.88
76166;BME280;65085;46.718;20.136;2023-01-29T07:34:21;101706.16;;;2.77;68.80
76166;BME280;65085;46.718;20.136;2023-01-29T07:37:24;101708.78;;;2.82;68.00
76166;BME280;65085;46.718;20.136;2023-01-29T07:40:27;101723.06;;;2.77;68.35
76166;BME280;65085;46.718;20.136;2023-01-29T07:43:32;101716.16;;;2.71;69.75
76166;BME280;65085;46.718;20.136;2023-01-29T07:46:35;101719.09;;;3.07;68.35
76166;BME280;65085;46.718;20.136;2023-01-29T07:49:37;101706.66;;;3.11;67.89
76166;BME280;65085;46.718;20.136;2023-01-29T07:52:40;101710.13;;;3.30;66.47
76166;BME280;65085;46.718;20.136;2023-01-29T07:55:43;101711.75;;;3.12;66.77
76166;BME280;65085;46.718;20.136;2023-01-29T07:58:48;101713.25;;;3.18;66.83
76166;BME280;65085;46.718;20.136;2023-01-29T08:01:50;101707.91;;;3.32;66.12
76166;BME280;65085;46.718;20.136;2023-01-29T08:04:53;101706.50;;;3.21;66.75
76166;BME280;65085;46.718;20.136;2023-01-29T08:07:56;101712.97;;;3.20;66.89
76166;BME280;65085;46.718;20.136;2023-01-29T08:11:08;101715.47;;;3.30;65.84
76166;BME280;65085;46.718;20.136;2023-01-29T08:14:12;101715.94;;;3.18;66.24
76166;BME280;65085;46.718;20.136;2023-01-29T08:17:15;101710.56;;;3.18;66.77
76166;BME280;65085;46.718;20.136;2023-01-29T08:20:18;101710.28;;;3.20;65.53
76166;BME280;65085;46.718;20.136;2023-01-29T08:23:22;101708.28;;;3.12;66.95
76166;BME280;65085;46.718;20.136;2023-01-29T08:26:25;101703.16;;;3.29;65.38
76166;BME280;65085;46.718;20.136;2023-01-29T08:29:30;101702.84;;;3.30;64.75
76166;BME280;65085;46.718;20.136;2023-01-29T08:32:33;101702.97;;;3.52;63.72
76166;BME280;65085;46.718;20.136;2023-01-29T08:35:35;101707.44;;;3.30;65.17
76166;BME280;65085;46.718;20.136;2023-01-29T08:38:38;101710.31;;;3.33;64.71
76166;BME280;65085;46.718;20.136;2023-01-29T08:41:41;101706.41;;;3.26;64.19
76166;BME280;65085;46.718;20.136;2023-01-29T08:44:45;101696.22;;;3.41;65.66
76166;BME280;65085;46.718;20.136;2023-01-29T08:47:48;101704.13;;;3.33;64.94
76166;BME280;65085;46.718;20.136;2023-01-29T08:50:51;101717.91;;;3.44;63.91
76166;BME280;65085;46.718;20.136;2023-01-29T08:53:54;101703.78;;;3.52;63.51
76166;BME280;65085;46.718;20.136;2023-01-29T08:56:57;101717.69;;;3.41;62.82
76166;BME280;65085;46.718;20.136;2023-01-29T09:00:01;101717.25;;;3.21;63.49
76166;BME280;65085;46.718;20.136;2023-01-29T09:03:05;101722.25;;;3.40;62.89
76166;BME280;65085;46.718;20.136;2023-01-29T09:06:11;101720.19;;;3.38;63.43
76166;BME280;65085;46.718;20.136;2023-01-29T09:09:14;101723.06;;;3.41;63.78
76166;BME280;65085;46.718;20.136;2023-01-29T09:12:16;101726.78;;;3.27;63.95
76166;BME280;65085;46.718;20.136;2023-01-29T09:15:21;101726.00;;;3.26;63.11
76166;BME280;65085;46.718;20.136;2023-01-29T09:18:24;101725.81;;;3.23;63.44
76166;BME280;65085;46.718;20.136;2023-01-29T09:21:27;101730.00;;;3.29;64.00
76166;BME280;65085;46.718;20.136;2023-01-29T09:24:29;101729.59;;;3.22;65.88
76166;BME280;65085;46.718;20.136;2023-01-29T09:27:34;101730.81;;;3.42;64.34
76166;BME280;65085;46.718;20.136;2023-01-29T09:30:38;101725.38;;;3.61;63.78
76166;BME280;65085;46.718;20.136;2023-01-29T09:33:41;101729.75;;;3.57;63.24
76166;BME280;65085;46.718;20.136;2023-01-29T09:36:44;101733.56;;;3.69;64.55
76166;BME280;65085;46.718;20.136;2023-01-29T09:39:47;101732.72;;;3.55;65.11
76166;BME280;65085;46.718;20.136;2023-01-29T09:42:54;101736.09;;;3.47;65.22
76166;BME280;65085;46.718;20.136;2023-01-29T09:46:04;101729.31;;;3.37;66.03
76166;BME280;65085;46.718;20.136;2023-01-29T09:49:11;101736.97;;;3.30;65.36
76166;BME280;65085;46.718;20.136;2023-01-29T09:52:21;101739.97;;;3.10;66.02
76166;BME280;65085;46.718;20.136;2023-01-29T09:55:26;101737.72;;;3.17;67.39
76166;BME280;65085;46.718;20.136;2023-01-29T09:58:33;101721.94;;;3.29;66.89
76166;BME280;65085;46.718;20.136;2023-01-29T10:01:46;101729.13;;;3.33;65.95
76166;BME280;65085;46.718;20.136;2023-01-29T10:05:08;101731.50;;;3.34;65.76
76166;BME280;65085;46.718;20.136;2023-01-29T10:08:29;101730.50;;;3.31;66.22
76166;BME280;65085;46.718;20.136;2023-01-29T10:11:45;101733.41;;;3.34;65.37
76166;BME280;65085;46.718;20.136;2023-01-29T10:14:59;101730.09;;;3.24;64.88
76166;BME280;65085;46.718;20.136;2023-01-29T10:18:30;101736.63;;;3.18;65.17
76166;BME280;65085;46.718;20.136;2023-01-29T10:21:57;101734.53;;;3.15;66.02
76166;BME280;65085;46.718;20.136;2023-01-29T10:25:05;101731.94;;;3.23;64.45
76166;BME280;65085;46.718;20.136;2023-01-29T10:28:16;101731.56;;;3.16;65.59
76166;BME280;65085;46.718;20.136;2023-01-29T10:31:24;101731.91;;;3.10;66.57
76166;BME280;65085;46.718;20.136;2023-01-29T10:34:34;101741.84;;;3.28;66.69
76166;BME280;65085;46.718;20.136;2023-01-29T10:37:41;101731.59;;;3.30;66.53
76166;BME280;65085;46.718;20.136;2023-01-29T10:40:47;101749.31;;;3.44;65.21
76166;BME280;65085;46.718;20.136;2023-01-29T10:44:00;101738.78;;;3.47;65.30
76166;BME280;65085;46.718;20.136;2023-01-29T10:47:16;101751.34;;;3.65;65.17
76166;BME280;65085;46.718;20.136;2023-01-29T10:50:35;101741.13;;;3.67;64.07
76166;BME280;65085;46.718;20.136;2023-01-29T10:53:52;101735.91;;;3.57;63.06
76166;BME280;65085;46.718;20.136;2023-01-29T10:57:06;101741.59;;;3.56;63.19
76166;BME280;65085;46.718;20.136;2023-01-29T11:00:18;101740.19;;;3.58;62.32
76166;BME280;65085;46.718;20.136;2023-01-29T11:03:24;101730.25;;;3.59;62.91
76166;BME280;65085;46.718;20.136;2023-01-29T11:06:33;101730.13;;;3.50;63.79
76166;BME280;65085;46.718;20.136;2023-01-29T11:09:41;101730.81;;;3.42;64.47
76166;BME280;65085;46.718;20.136;2023-01-29T11:12:45;101718.00;;;3.53;63.51
76166;BME280;65085;46.718;20.136;2023-01-29T11:16:07;101716.19;;;3.48;64.54
76166;BME280;65085;46.718;20.136;2023-01-29T11:19:11;101710.06;;;3.48;66.46
76166;BME280;65085;46.718;20.136;2023-01-29T11:22:17;101706.75;;;3.64;66.96
76166;BME280;65085;46.718;20.136;2023-01-29T11:25:21;101695.03;;;3.60;65.89
76166;BME280;65085;46.718;20.136;2023-01-29T11:28:35;101697.81;;;3.69;66.42
76166;BME280;65085;46.718;20.136;2023-01-29T11:31:39;101693.25;;;3.69;66.98
76166;BME280;65085;46.718;20.136;2023-01-29T11:35:03;101694.84;;;3.57;67.30
76166;BME280;65085;46.718;20.136;2023-01-29T11:38:17;101695.19;;;3.50;67.48
76166;BME280;65085;46.718;20.136;2023-01-29T11:41:20;101677.28;;;3.46;67.09
76166;BME280;65085;46.718;20.136;2023-01-29T11:44:28;101679.97;;;3.46;67.54
76166;BME280;65085;46.718;20.136;2023-01-29T11:47:31;101674.31;;;3.47;66.78
76166;BME280;65085;46.718;20.136;2023-01-29T11:50:34;101670.25;;;3.63;65.29
76166;BME280;65085;46.718;20.136;2023-01-29T11:53:40;101670.53;;;3.48;66.08
76166;BME280;65085;46.718;20.136;2023-01-29T11:56:45;101671.22;;;3.54;65.50
76166;BME280;65085;46.718;20.136;2023-01-29T11:59:50;101667.84;;;3.35;64.21
76166;BME280;65085;46.718;20.136;2023-01-29T12:02:55;101669.94;;;3.38;65.37
76166;BME280;65085;46.718;20.136;2023-01-29T12:06:01;101665.38;;;3.38;65.96
76166;BME280;65085;46.718;20.136;2023-01-29T12:09:12;101669.75;;;3.48;66.03
76166;BME280;65085;46.718;20.136;2023-01-29T12:12:30;101664.06;;;3.49;64.93
76166;BME280;65085;46.718;20.136;2023-01-29T12:15:33;101653.03;;;3.38;64.84
76166;BME280;65085;46.718;20.136;2023-01-29T12:18:39;101652.22;;;3.24;65.20
76166;BME280;65085;46.718;20.136;2023-01-29T12:21:47;101657.91;;;3.36;65.19
76166;BME280;65085;46.718;20.136;2023-01-29T12:24:56;101643.75;;;3.17;65.73
76166;BME280;65085;46.718;20.136;2023-01-29T12:28:06;101646.03;;;3.23;65.24
76166;BME280;65085;46.718;20.136;2023-01-29T12:31:24;101639.59;;;3.24;66.40
76166;BME280;65085;46.718;20.136;2023-01-29T12:34:35;101644.66;;;3.26;66.20
76166;BME280;65085;46.718;20.136;2023-01-29T12:37:52;101644.06;;;3.29;66.19
76166;BME280;65085;46.718;20.136;2023-01-29T12:41:05;101647.16;;;3.49;64.94
76166;BME280;65085;46.718;20.136;2023-01-29T12:44:12;101641.97;;;3.39;64.72
76166;BME280;65085;46.718;20.136;2023-01-29T12:47:21;101630.25;;;3.35;66.38
76166;BME280;65085;46.718;20.136;2023-01-29T12:50:27;101628.38;;;3.36;65.63
76166;BME280;65085;46.718;20.136;2023-01-29T12:53:33;101630.66;;;3.29;66.00
76166;BME280;65085;46.718;20.136;2023-01-29T12:56:41;101627.25;;;3.23;66.93
76166;BME280;65085;46.718;20.136;2023-01-29T12:59:48;101619.22;;;3.37;66.47
76166;BME280;65085;46.718;20.136;2023-01-29T13:02:55;101622.88;;;3.54;65.58
76166;BME280;65085;46.718;20.136;2023-01-29T13:06:04;101608.97;;;3.38;65.39
76166;BME280;65085;46.718;20.136;2023-01-29T13:09:12;101611.66;;;3.38;66.14
76166;BME280;65085;46.718;20.136;2023-01-29T13:12:21;101591.56;;;3.23;66.22
76166;BME280;65085;46.718;20.136;2023-01-29T13:15:28;101602.09;;;3.33;65.85
76166;BME280;65085;46.718;20.136;2023-01-29T13:18:40;101603.47;;;3.17;66.07
76166;BME280;65085;46.718;20.136;2023-01-29T13:21:46;101604.56;;;3.42;65.90
76166;BME280;65085;46.718;20.136;2023-01-29T13:24:50;101606.47;;;3.29;65.79
76166;BME280;65085;46.718;20.136;2023-01-29T13:28:15;101608.56;;;3.32;66.39
76166;BME280;65085;46.718;20.136;2023-01-29T13:31:26;101609.88;;;3.34;67.68
76166;BME280;65085;46.718;20.136;2023-01-29T13:34:32;101612.53;;;3.21;67.67
76166;BME280;65085;46.718;20.136;2023-01-29T13:37:39;101620.66;;;3.02;69.16
76166;BME280;65085;46.718;20.136;2023-01-29T13:40:48;101599.00;;;2.99;69.04
76166;BME280;65085;46.718;20.136;2023-01-29T13:43:53;101600.38;;;3.23;68.90
76166;BME280;65085;46.718;20.136;2023-01-29T13:46:57;101602.59;;;3.21;68.17
76166;BME280;65085;46.718;20.136;2023-01-29T13:50:02;101607.47;;;3.19;67.66
76166;BME280;65085;46.718;20.136;2023-01-29T13:53:19;101608.03;;;3.03;67.97
76166;BME280;65085;46.718;20.136;2023-01-29T13:56:29;101600.56;;;2.86;69.23
76166;BME280;65085;46.718;20.136;2023-01-29T13:59:52;101595.47;;;2.85;68.97
76166;BME280;65085;46.718;20.136;2023-01-29T14:06:53;101592.13;;;2.93;71.01
76166;BME280;65085;46.718;20.136;2023-01-29T14:10:12;101588.34;;;2.94;72.43
76166;BME280;65085;46.718;20.136;2023-01-29T14:13:26;101590.91;;;2.85;72.86
76166;BME280;65085;46.718;20.136;2023-01-29T14:16:37;101581.22;;;2.71;72.71
76166;BME280;65085;46.718;20.136;2023-01-29T14:20:02;101579.97;;;2.68;73.02
76166;BME280;65085;46.718;20.136;2023-01-29T14:23:33;101580.00;;;2.50;74.25
76166;BME280;65085;46.718;20.136;2023-01-29T14:26:42;101579.28;;;2.44;74.03
76166;BME280;65085;46.718;20.136;2023-01-29T14:29:47;101572.63;;;2.42;74.38
76166;BME280;65085;46.718;20.136;2023-01-29T14:32:51;101575.50;;;2.45;74.87
76166;BME280;65085;46.718;20.136;2023-01-29T14:35:55;101572.22;;;2.48;75.31
76166;BME280;65085;46.718;20.136;2023-01-29T14:39:00;101572.66;;;2.55;75.92
76166;BME280;65085;46.718;20.136;2023-01-29T14:42:12;101577.63;;;2.62;74.68
76166;BME280;65085;46.718;20.136;2023-01-29T14:45:36;101574.88;;;2.67;74.29
76166;BME280;65085;46.718;20.136;2023-01-29T14:48:45;101559.94;;;2.61;74.82
76166;BME280;65085;46.718;20.136;2023-01-29T14:51:50;101569.28;;;2.50;75.00
76166;BME280;65085;46.718;20.136;2023-01-29T14:54:57;101573.03;;;2.49;74.93
76166;BME280;65085;46.718;20.136;2023-01-29T14:58:02;101577.50;;;2.40;74.33
76166;BME280;65085;46.718;20.136;2023-01-29T15:01:18;101582.91;;;2.35;74.33
76166;BME280;65085;46.718;20.136;2023-01-29T15:04:25;101578.16;;;2.32;73.84
76166;BME280;65085;46.718;20.136;2023-01-29T15:07:32;101578.72;;;2.29;74.00
76166;BME280;65085;46.718;20.136;2023-01-29T15:10:42;101585.16;;;2.28;73.26
76166;BME280;65085;46.718;20.136;2023-01-29T15:13:50;101579.00;;;2.27;73.40
76166;BME280;65085;46.718;20.136;2023-01-29T15:17:01;101574.88;;;2.35;74.21
76166;BME280;65085;46.718;20.136;2023-01-29T15:20:28;101569.00;;;2.33;73.35
76166;BME280;65085;46.718;20.136;2023-01-29T15:23:32;101569.09;;;2.28;73.35
76166;BME280;65085;46.718;20.136;2023-01-29T15:26:35;101582.09;;;2.34;72.68
76166;BME280;65085;46.718;20.136;2023-01-29T15:29:38;101592.72;;;2.26;73.45
76166;BME280;65085;46.718;20.136;2023-01-29T15:32:43;101579.88;;;2.23;73.48
76166;BME280;65085;46.718;20.136;2023-01-29T15:35:54;101598.50;;;2.14;73.94
76166;BME280;65085;46.718;20.136;2023-01-29T15:39:16;101597.72;;;2.14;74.60
76166;BME280;65085;46.718;20.136;2023-01-29T15:42:20;101589.53;;;2.05;73.75
76166;BME280;65085;46.718;20.136;2023-01-29T15:45:28;101605.91;;;2.04;73.92
76166;BME280;65085;46.718;20.136;2023-01-29T15:48:34;101606.50;;;2.01;73.55
76166;BME280;65085;46.718;20.136;2023-01-29T15:51:40;101609.66;;;2.03;73.90
76166;BME280;65085;46.718;20.136;2023-01-29T15:54:46;101605.97;;;1.99;73.52
76166;BME280;65085;46.718;20.136;2023-01-29T15:57:49;101598.56;;;1.91;74.50
76166;BME280;65085;46.718;20.136;2023-01-29T16:00:53;101603.59;;;1.97;73.82
76166;BME280;65085;46.718;20.136;2023-01-29T16:03:58;101600.59;;;1.99;72.42
76166;BME280;65085;46.718;20.136;2023-01-29T16:07:06;101604.75;;;1.91;71.48
76166;BME280;65085;46.718;20.136;2023-01-29T16:10:15;101611.31;;;1.80;72.39
76166;BME280;65085;46.718;20.136;2023-01-29T16:13:22;101609.66;;;1.84;73.02
76166;BME280;65085;46.718;20.136;2023-01-29T16:16:26;101609.44;;;1.81;72.84
76166;BME280;65085;46.718;20.136;2023-01-29T16:19:29;101614.41;;;1.87;72.08
76166;BME280;65085;46.718;20.136;2023-01-29T16:22:35;101614.34;;;1.74;71.32
76166;BME280;65085;46.718;20.136;2023-01-29T16:25:39;101614.94;;;1.71;72.58
76166;BME280;65085;46.718;20.136;2023-01-29T16:28:43;101617.81;;;1.74;71.69